sensor_id;sensor_type;location;lat;lon;timestamp;temperature;humidity
20370;DHT22;10344;47.592;9.600;2024-02-21T00:01:22;4.20;99.90
20370;DHT22;10344;47.592;9.600;2024-02-21T00:03:48;4.20;99.90
20370;DHT22;10344;47.592;9.600;2024-02-21T00:06:14;4.30;99.90
20370;DHT22;10344;47.592;9.600;2024-02-21T00:08:39;4.30;99.90
20370;DHT22;10344;47.592;9.600;2024-02-21T00:11:05;4.30;99.90
20370;DHT22;10344;47.592;9.600;2024-02-21T00:13:33;4.60;99.90
20370;DHT22;10344;47.592;9.600;2024-02-21T00:16:01;4.60;99.90
20370;DHT22;10344;47.592;9.600;2024-02-21T00:18:27;4.70;99.90
20370;DHT22;10344;47.592;9.600;2024-02-21T00:20:53;4.80;99.90
20370;DHT22;10344;47.592;9.600;2024-02-21T00:23:18;4.90;99.90
20370;DHT22;10344;47.592;9.600;2024-02-21T00:25:44;4.90;99.90
20370;DHT22;10344;47.592;9.600;2024-02-21T00:28:12;5.00;99.90
20370;DHT22;10344;47.592;9.600;2024-02-21T00:30:38;5.10;99.90
20370;DHT22;10344;47.592;9.600;2024-02-21T00:33:04;5.10;99.90
20370;DHT22;10344;47.592;9.600;2024-02-21T00:35:29;5.10;99.90
20370;DHT22;10344;47.592;9.600;2024-02-21T00:37:55;5.10;99.90
20370;DHT22;10344;47.592;9.600;2024-02-21T00:40:22;5.10;99.90
20370;DHT22;10344;47.592;9.600;2024-02-21T00:42:48;5.10;99.90
20370;DHT22;10344;47.592;9.600;2024-02-21T00:45:14;5.10;99.90
20370;DHT22;10344;47.592;9.600;2024-02-21T00:47:39;5.10;99.90
20370;DHT22;10344;47.592;9.600;2024-02-21T00:50:08;5.10;99.90
20370;DHT22;10344;47.592;9.600;2024-02-21T00:52:34;5.00;99.90
20370;DHT22;10344;47.592;9.600;2024-02-21T00:55:00;5.00;99.90
20370;DHT22;10344;47.592;9.600;2024-02-21T00:57:26;5.00;99.90
20370;DHT22;10344;47.592;9.600;2024-02-21T00:59:52;4.90;99.90
20370;DHT22;10344;47.592;9.600;2024-02-21T01:02:17;4.90;99.90
20370;DHT22;10344;47.592;9.600;2024-02-21T01:04:43;4.90;99.90
20370;DHT22;10344;47.592;9.600;2024-02-21T01:07:08;4.70;99.90
20370;DHT22;10344;47.592;9.600;2024-02-21T01:09:36;4.70;99.90
20370;DHT22;10344;47.592;9.600;2024-02-21T01:12:07;4.60;99.90
20370;DHT22;10344;47.592;9.600;2024-02-21T01:14:32;4.60;99.90
20370;DHT22;10344;47.592;9.600;2024-02-21T01:16:58;4.60;99.90
20370;DHT22;10344;47.592;9.600;2024-02-21T01:19:24;4.50;99.90
20370;DHT22;10344;47.592;9.600;2024-02-21T01:21:49;4.50;99.90
20370;DHT22;10344;47.592;9.600;2024-02-21T01:24:15;4.50;99.90
20370;DHT22;10344;47.592;9.600;2024-02-21T01:26:41;4.50;99.90
20370;DHT22;10344;47.592;9.600;2024-02-21T01:29:06;4.50;99.90
20370;DHT22;10344;47.592;9.600;2024-02-21T01:31:32;4.50;99.90
20370;DHT22;10344;47.592;9.600;2024-02-21T01:33:57;4.40;99.90
20370;DHT22;10344;47.592;9.600;2024-02-21T01:36:23;4.40;99.90
20370;DHT22;10344;47.592;9.600;2024-02-21T01:38:49;4.40;99.90
20370;DHT22;10344;47.592;9.600;2024-02-21T01:41:14;4.30;99.90
20370;DHT22;10344;47.592;9.600;2024-02-21T01:43:41;4.30;99.90
20370;DHT22;10344;47.592;9.600;2024-02-21T01:46:10;4.40;99.90
20370;DHT22;10344;47.592;9.600;2024-02-21T01:48:35;4.50;99.90
20370;DHT22;10344;47.592;9.600;2024-02-21T01:51:03;4.50;99.90
20370;DHT22;10344;47.592;9.600;2024-02-21T01:53:32;4.60;99.90
20370;DHT22;10344;47.592;9.600;2024-02-21T01:56:00;4.70;99.90
20370;DHT22;10344;47.592;9.600;2024-02-21T01:58:28;4.70;99.90
20370;DHT22;10344;47.592;9.600;2024-02-21T02:00:56;4.70;99.90
20370;DHT22;10344;47.592;9.600;2024-02-21T02:03:25;4.70;99.90
20370;DHT22;10344;47.592;9.600;2024-02-21T02:05:52;4.70;99.90
20370;DHT22;10344;47.592;9.600;2024-02-21T02:08:19;4.70;99.90
20370;DHT22;10344;47.592;9.600;2024-02-21T02:10:47;4.70;99.90
20370;DHT22;10344;47.592;9.600;2024-02-21T02:13:13;4.70;99.90
20370;DHT22;10344;47.592;9.600;2024-02-21T02:15:43;4.60;99.90
20370;DHT22;10344;47.592;9.600;2024-02-21T02:18:12;4.60;99.90
20370;DHT22;10344;47.592;9.600;2024-02-21T02:20:39;4.60;99.90
20370;DHT22;10344;47.592;9.600;2024-02-21T02:23:12;4.60;99.90
20370;DHT22;10344;47.592;9.600;2024-02-21T02:25:38;4.70;99.90
20370;DHT22;10344;47.592;9.600;2024-02-21T02:28:07;4.60;99.90
20370;DHT22;10344;47.592;9.600;2024-02-21T02:30:34;4.70;99.90
20370;DHT22;10344;47.592;9.600;2024-02-21T02:33:02;4.70;99.90
20370;DHT22;10344;47.592;9.600;2024-02-21T02:35:27;4.70;99.90
20370;DHT22;10344;47.592;9.600;2024-02-21T02:37:53;4.70;99.90
20370;DHT22;10344;47.592;9.600;2024-02-21T02:40:21;4.70;99.90
20370;DHT22;10344;47.592;9.600;2024-02-21T02:42:47;4.60;99.90
20370;DHT22;10344;47.592;9.600;2024-02-21T02:45:15;4.60;99.90
20370;DHT22;10344;47.592;9.600;2024-02-21T02:47:43;4.70;99.90
20370;DHT22;10344;47.592;9.600;2024-02-21T02:50:09;4.70;99.90
20370;DHT22;10344;47.592;9.600;2024-02-21T02:52:37;4.60;99.90
20370;DHT22;10344;47.592;9.600;2024-02-21T02:55:04;4.60;99.90
20370;DHT22;10344;47.592;9.600;2024-02-21T02:57:30;4.50;99.90
20370;DHT22;10344;47.592;9.600;2024-02-21T02:59:55;4.50;99.90
20370;DHT22;10344;47.592;9.600;2024-02-21T03:02:21;4.50;99.90
20370;DHT22;10344;47.592;9.600;2024-02-21T03:04:46;4.50;99.90
20370;DHT22;10344;47.592;9.600;2024-02-21T03:07:15;4.50;99.90
20370;DHT22;10344;47.592;9.600;2024-02-21T03:09:41;4.50;99.90
20370;DHT22;10344;47.592;9.600;2024-02-21T03:12:11;4.60;99.90
20370;DHT22;10344;47.592;9.600;2024-02-21T03:14:36;4.60;99.90
20370;DHT22;10344;47.592;9.600;2024-02-21T03:17:04;4.60;99.90
20370;DHT22;10344;47.592;9.600;2024-02-21T03:19:30;4.60;99.90
20370;DHT22;10344;47.592;9.600;2024-02-21T03:21:56;4.50;99.90
20370;DHT22;10344;47.592;9.600;2024-02-21T03:24:22;4.50;99.90
20370;DHT22;10344;47.592;9.600;2024-02-21T03:26:48;4.50;99.90
20370;DHT22;10344;47.592;9.600;2024-02-21T03:29:17;4.50;99.90
20370;DHT22;10344;47.592;9.600;2024-02-21T03:31:43;4.50;99.90
20370;DHT22;10344;47.592;9.600;2024-02-21T03:34:12;4.50;99.90
20370;DHT22;10344;47.592;9.600;2024-02-21T03:36:37;4.40;99.90
20370;DHT22;10344;47.592;9.600;2024-02-21T03:39:04;4.50;99.90
20370;DHT22;10344;47.592;9.600;2024-02-21T03:41:29;4.50;99.90
20370;DHT22;10344;47.592;9.600;2024-02-21T03:43:57;4.50;99.90
20370;DHT22;10344;47.592;9.600;2024-02-21T03:46:24;4.50;99.90
20370;DHT22;10344;47.592;9.600;2024-02-21T03:48:50;4.60;99.90
20370;DHT22;10344;47.592;9.600;2024-02-21T03:51:15;4.60;99.90
20370;DHT22;10344;47.592;9.600;2024-02-21T03:53:41;4.60;99.90
20370;DHT22;10344;47.592;9.600;2024-02-21T03:56:07;4.70;99.90
20370;DHT22;10344;47.592;9.600;2024-02-21T03:58:33;4.60;99.90
20370;DHT22;10344;47.592;9.600;2024-02-21T04:01:02;4.70;99.90
20370;DHT22;10344;47.592;9.600;2024-02-21T04:03:28;4.60;99.90
20370;DHT22;10344;47.592;9.600;2024-02-21T04:05:54;4.70;99.90
20370;DHT22;10344;47.592;9.600;2024-02-21T04:08:22;4.70;99.90
20370;DHT22;10344;47.592;9.600;2024-02-21T04:10:50;4.70;99.90
20370;DHT22;10344;47.592;9.600;2024-02-21T04:13:16;4.70;99.90
20370;DHT22;10344;47.592;9.600;2024-02-21T04:15:42;4.60;99.90
20370;DHT22;10344;47.592;9.600;2024-02-21T04:18:07;4.60;99.90
20370;DHT22;10344;47.592;9.600;2024-02-21T04:20:34;4.70;99.90
20370;DHT22;10344;47.592;9.600;2024-02-21T04:23:02;4.70;99.90
20370;DHT22;10344;47.592;9.600;2024-02-21T04:25:28;4.80;99.90
20370;DHT22;10344;47.592;9.600;2024-02-21T04:27:55;4.80;99.90
20370;DHT22;10344;47.592;9.600;2024-02-21T04:30:21;4.90;99.90
20370;DHT22;10344;47.592;9.600;2024-02-21T04:32:47;4.90;99.90
20370;DHT22;10344;47.592;9.600;2024-02-21T04:35:12;4.90;99.90
20370;DHT22;10344;47.592;9.600;2024-02-21T04:37:38;4.90;99.90
20370;DHT22;10344;47.592;9.600;2024-02-21T04:40:04;4.90;99.90
20370;DHT22;10344;47.592;9.600;2024-02-21T04:42:32;4.90;99.90
20370;DHT22;10344;47.592;9.600;2024-02-21T04:44:58;4.90;99.90
20370;DHT22;10344;47.592;9.600;2024-02-21T04:47:23;4.90;99.90
20370;DHT22;10344;47.592;9.600;2024-02-21T04:49:50;4.90;99.90
20370;DHT22;10344;47.592;9.600;2024-02-21T04:52:16;4.80;99.90
20370;DHT22;10344;47.592;9.600;2024-02-21T04:54:41;4.70;99.90
20370;DHT22;10344;47.592;9.600;2024-02-21T04:57:07;4.70;99.90
20370;DHT22;10344;47.592;9.600;2024-02-21T04:59:33;4.70;99.90
20370;DHT22;10344;47.592;9.600;2024-02-21T05:02:00;4.70;99.90
20370;DHT22;10344;47.592;9.600;2024-02-21T05:04:26;4.60;99.90
20370;DHT22;10344;47.592;9.600;2024-02-21T05:06:53;4.60;99.90
20370;DHT22;10344;47.592;9.600;2024-02-21T05:09:22;4.60;99.90
20370;DHT22;10344;47.592;9.600;2024-02-21T05:11:48;4.60;99.90
20370;DHT22;10344;47.592;9.600;2024-02-21T05:14:15;4.70;99.90
20370;DHT22;10344;47.592;9.600;2024-02-21T05:16:41;4.80;99.90
20370;DHT22;10344;47.592;9.600;2024-02-21T05:19:09;4.90;99.90
20370;DHT22;10344;47.592;9.600;2024-02-21T05:21:34;4.90;99.90
20370;DHT22;10344;47.592;9.600;2024-02-21T05:24:00;4.90;99.90
20370;DHT22;10344;47.592;9.600;2024-02-21T05:26:27;5.00;99.90
20370;DHT22;10344;47.592;9.600;2024-02-21T05:28:55;5.00;99.90
20370;DHT22;10344;47.592;9.600;2024-02-21T05:31:21;5.00;99.90
20370;DHT22;10344;47.592;9.600;2024-02-21T05:33:47;5.00;99.90
20370;DHT22;10344;47.592;9.600;2024-02-21T05:36:13;5.00;99.90
20370;DHT22;10344;47.592;9.600;2024-02-21T05:38:38;5.10;99.90
20370;DHT22;10344;47.592;9.600;2024-02-21T05:41:04;5.00;99.90
20370;DHT22;10344;47.592;9.600;2024-02-21T05:43:32;5.00;99.90
20370;DHT22;10344;47.592;9.600;2024-02-21T05:46:00;5.00;99.90
20370;DHT22;10344;47.592;9.600;2024-02-21T05:48:26;5.00;99.90
20370;DHT22;10344;47.592;9.600;2024-02-21T05:50:51;5.10;99.90
20370;DHT22;10344;47.592;9.600;2024-02-21T05:53:17;5.10;99.90
20370;DHT22;10344;47.592;9.600;2024-02-21T05:55:43;5.10;99.90
20370;DHT22;10344;47.592;9.600;2024-02-21T05:58:09;5.10;99.90
20370;DHT22;10344;47.592;9.600;2024-02-21T06:00:40;5.10;99.90
20370;DHT22;10344;47.592;9.600;2024-02-21T06:03:06;5.20;99.90
20370;DHT22;10344;47.592;9.600;2024-02-21T06:05:37;5.20;99.90
20370;DHT22;10344;47.592;9.600;2024-02-21T06:08:04;5.20;99.90
20370;DHT22;10344;47.592;9.600;2024-02-21T06:10:32;5.20;99.90
20370;DHT22;10344;47.592;9.600;2024-02-21T06:12:58;5.20;99.90
20370;DHT22;10344;47.592;9.600;2024-02-21T06:15:23;5.30;99.90
20370;DHT22;10344;47.592;9.600;2024-02-21T06:17:49;5.30;99.90
20370;DHT22;10344;47.592;9.600;2024-02-21T06:20:16;5.40;99.90
20370;DHT22;10344;47.592;9.600;2024-02-21T06:22:42;5.40;99.90
20370;DHT22;10344;47.592;9.600;2024-02-21T06:25:08;5.40;99.90
20370;DHT22;10344;47.592;9.600;2024-02-21T06:27:33;5.40;99.90
20370;DHT22;10344;47.592;9.600;2024-02-21T06:30:01;5.40;99.90
20370;DHT22;10344;47.592;9.600;2024-02-21T06:32:28;5.40;99.90
20370;DHT22;10344;47.592;9.600;2024-02-21T06:34:54;5.40;99.90
20370;DHT22;10344;47.592;9.600;2024-02-21T06:37:19;5.40;99.90
20370;DHT22;10344;47.592;9.600;2024-02-21T06:39:45;5.50;99.90
20370;DHT22;10344;47.592;9.600;2024-02-21T06:42:10;5.50;99.90
20370;DHT22;10344;47.592;9.600;2024-02-21T06:44:36;5.60;99.90
20370;DHT22;10344;47.592;9.600;2024-02-21T06:47:06;5.60;99.90
20370;DHT22;10344;47.592;9.600;2024-02-21T06:49:31;5.60;99.90
20370;DHT22;10344;47.592;9.600;2024-02-21T06:51:57;5.60;99.90
20370;DHT22;10344;47.592;9.600;2024-02-21T06:54:23;5.60;99.90
20370;DHT22;10344;47.592;9.600;2024-02-21T06:56:49;5.50;99.90
20370;DHT22;10344;47.592;9.600;2024-02-21T06:59:14;5.50;99.90
20370;DHT22;10344;47.592;9.600;2024-02-21T07:01:45;5.50;99.90
20370;DHT22;10344;47.592;9.600;2024-02-21T07:04:11;5.60;99.90
20370;DHT22;10344;47.592;9.600;2024-02-21T07:06:37;5.60;99.90
20370;DHT22;10344;47.592;9.600;2024-02-21T07:09:03;5.60;99.90
20370;DHT22;10344;47.592;9.600;2024-02-21T07:11:28;5.60;99.90
20370;DHT22;10344;47.592;9.600;2024-02-21T07:13:54;5.70;99.90
20370;DHT22;10344;47.592;9.600;2024-02-21T07:16:19;5.70;99.90
20370;DHT22;10344;47.592;9.600;2024-02-21T07:18:45;5.80;99.90
20370;DHT22;10344;47.592;9.600;2024-02-21T07:21:13;5.80;99.90
20370;DHT22;10344;47.592;9.600;2024-02-21T07:23:41;5.90;99.90
20370;DHT22;10344;47.592;9.600;2024-02-21T07:26:07;6.20;99.90
20370;DHT22;10344;47.592;9.600;2024-02-21T07:28:33;7.10;99.90
20370;DHT22;10344;47.592;9.600;2024-02-21T07:31:02;8.00;99.90
20370;DHT22;10344;47.592;9.600;2024-02-21T07:33:28;9.10;99.90
20370;DHT22;10344;47.592;9.600;2024-02-21T07:35:54;10.20;99.90
20370;DHT22;10344;47.592;9.600;2024-02-21T07:38:19;11.20;99.90
20370;DHT22;10344;47.592;9.600;2024-02-21T07:40:45;11.80;99.90
20370;DHT22;10344;47.592;9.600;2024-02-21T07:43:11;12.40;99.90
20370;DHT22;10344;47.592;9.600;2024-02-21T07:45:36;13.20;99.90
20370;DHT22;10344;47.592;9.600;2024-02-21T07:48:03;13.60;99.90
20370;DHT22;10344;47.592;9.600;2024-02-21T07:50:29;13.20;99.90
20370;DHT22;10344;47.592;9.600;2024-02-21T07:52:55;12.40;99.90
20370;DHT22;10344;47.592;9.600;2024-02-21T07:55:25;11.80;99.90
20370;DHT22;10344;47.592;9.600;2024-02-21T07:57:53;11.10;99.90
20370;DHT22;10344;47.592;9.600;2024-02-21T08:00:19;10.80;99.90
20370;DHT22;10344;47.592;9.600;2024-02-21T08:02:48;10.30;99.90
20370;DHT22;10344;47.592;9.600;2024-02-21T08:05:14;10.10;99.90
20370;DHT22;10344;47.592;9.600;2024-02-21T08:07:40;10.10;99.90
20370;DHT22;10344;47.592;9.600;2024-02-21T08:10:08;10.30;99.90
20370;DHT22;10344;47.592;9.600;2024-02-21T08:12:34;10.80;99.90
20370;DHT22;10344;47.592;9.600;2024-02-21T08:15:00;11.40;99.90
20370;DHT22;10344;47.592;9.600;2024-02-21T08:17:29;12.10;99.90
20370;DHT22;10344;47.592;9.600;2024-02-21T08:19:54;13.00;99.90
20370;DHT22;10344;47.592;9.600;2024-02-21T08:22:20;13.90;99.90
20370;DHT22;10344;47.592;9.600;2024-02-21T08:24:48;14.60;99.90
20370;DHT22;10344;47.592;9.600;2024-02-21T08:27:14;15.20;99.90
20370;DHT22;10344;47.592;9.600;2024-02-21T08:29:39;15.60;99.90
20370;DHT22;10344;47.592;9.600;2024-02-21T08:32:05;15.80;99.90
20370;DHT22;10344;47.592;9.600;2024-02-21T08:34:32;15.90;99.90
20370;DHT22;10344;47.592;9.600;2024-02-21T08:37:01;15.90;99.90
20370;DHT22;10344;47.592;9.600;2024-02-21T08:39:27;15.70;99.90
20370;DHT22;10344;47.592;9.600;2024-02-21T08:41:56;15.50;99.90
20370;DHT22;10344;47.592;9.600;2024-02-21T08:44:25;15.30;99.90
20370;DHT22;10344;47.592;9.600;2024-02-21T08:46:51;15.20;99.90
20370;DHT22;10344;47.592;9.600;2024-02-21T08:49:17;14.80;99.90
20370;DHT22;10344;47.592;9.600;2024-02-21T08:51:45;14.60;99.90
20370;DHT22;10344;47.592;9.600;2024-02-21T08:54:11;14.10;99.90
20370;DHT22;10344;47.592;9.600;2024-02-21T08:56:37;13.70;99.90
20370;DHT22;10344;47.592;9.600;2024-02-21T08:59:03;13.60;99.90
20370;DHT22;10344;47.592;9.600;2024-02-21T09:01:29;13.70;99.90
20370;DHT22;10344;47.592;9.600;2024-02-21T09:03:55;13.90;99.90
20370;DHT22;10344;47.592;9.600;2024-02-21T09:06:22;14.10;99.90
20370;DHT22;10344;47.592;9.600;2024-02-21T09:08:48;14.40;99.90
20370;DHT22;10344;47.592;9.600;2024-02-21T09:11:14;14.70;99.90
20370;DHT22;10344;47.592;9.600;2024-02-21T09:13:40;15.00;99.90
20370;DHT22;10344;47.592;9.600;2024-02-21T09:16:05;15.20;99.90
20370;DHT22;10344;47.592;9.600;2024-02-21T09:18:31;15.50;99.90
20370;DHT22;10344;47.592;9.600;2024-02-21T09:20:57;15.90;99.90
20370;DHT22;10344;47.592;9.600;2024-02-21T09:23:26;16.00;99.90
20370;DHT22;10344;47.592;9.600;2024-02-21T09:25:52;15.80;99.90
20370;DHT22;10344;47.592;9.600;2024-02-21T09:28:20;15.70;99.90
20370;DHT22;10344;47.592;9.600;2024-02-21T09:30:46;15.70;99.90
20370;DHT22;10344;47.592;9.600;2024-02-21T09:33:12;15.70;99.90
20370;DHT22;10344;47.592;9.600;2024-02-21T09:35:38;15.70;99.90
20370;DHT22;10344;47.592;9.600;2024-02-21T09:38:03;15.40;99.90
20370;DHT22;10344;47.592;9.600;2024-02-21T09:40:31;15.10;99.90
20370;DHT22;10344;47.592;9.600;2024-02-21T09:43:03;14.50;99.90
20370;DHT22;10344;47.592;9.600;2024-02-21T09:45:35;13.80;99.90
20370;DHT22;10344;47.592;9.600;2024-02-21T09:50:51;12.90;99.90
20370;DHT22;10344;47.592;9.600;2024-02-21T09:53:18;12.30;99.90
20370;DHT22;10344;47.592;9.600;2024-02-21T09:55:45;12.10;99.90
20370;DHT22;10344;47.592;9.600;2024-02-21T09:58:12;12.00;99.90
20370;DHT22;10344;47.592;9.600;2024-02-21T10:00:40;12.20;99.90
20370;DHT22;10344;47.592;9.600;2024-02-21T10:03:06;12.40;99.90
20370;DHT22;10344;47.592;9.600;2024-02-21T10:05:36;12.40;99.90
20370;DHT22;10344;47.592;9.600;2024-02-21T10:08:04;12.10;99.90
20370;DHT22;10344;47.592;9.600;2024-02-21T10:10:45;11.50;99.90
20370;DHT22;10344;47.592;9.600;2024-02-21T10:13:23;11.10;99.90
20370;DHT22;10344;47.592;9.600;2024-02-21T10:15:59;10.70;99.90
20370;DHT22;10344;47.592;9.600;2024-02-21T10:18:25;10.40;99.90
20370;DHT22;10344;47.592;9.600;2024-02-21T10:21:06;10.50;99.90
20370;DHT22;10344;47.592;9.600;2024-02-21T10:23:46;10.70;99.90
20370;DHT22;10344;47.592;9.600;2024-02-21T10:26:14;11.00;99.90
20370;DHT22;10344;47.592;9.600;2024-02-21T10:28:41;11.10;99.90
20370;DHT22;10344;47.592;9.600;2024-02-21T10:31:27;11.40;99.90
20370;DHT22;10344;47.592;9.600;2024-02-21T10:33:59;12.00;99.90
20370;DHT22;10344;47.592;9.600;2024-02-21T10:36:28;12.00;99.90
20370;DHT22;10344;47.592;9.600;2024-02-21T10:38:54;11.80;99.90
20370;DHT22;10344;47.592;9.600;2024-02-21T10:41:20;11.90;99.90
20370;DHT22;10344;47.592;9.600;2024-02-21T10:43:53;11.90;99.90
20370;DHT22;10344;47.592;9.600;2024-02-21T10:46:21;11.80;99.90
20370;DHT22;10344;47.592;9.600;2024-02-21T10:48:48;11.60;99.90
20370;DHT22;10344;47.592;9.600;2024-02-21T10:51:22;11.60;99.90
20370;DHT22;10344;47.592;9.600;2024-02-21T10:56:33;11.50;99.90
20370;DHT22;10344;47.592;9.600;2024-02-21T10:59:06;11.80;99.90
20370;DHT22;10344;47.592;9.600;2024-02-21T11:01:35;12.10;99.90
20370;DHT22;10344;47.592;9.600;2024-02-21T11:04:07;11.90;99.90
20370;DHT22;10344;47.592;9.600;2024-02-21T11:06:38;12.00;99.90
20370;DHT22;10344;47.592;9.600;2024-02-21T11:09:08;12.30;99.90
20370;DHT22;10344;47.592;9.600;2024-02-21T11:14:09;12.60;99.90
20370;DHT22;10344;47.592;9.600;2024-02-21T11:16:40;12.70;99.90
20370;DHT22;10344;47.592;9.600;2024-02-21T11:19:18;12.80;99.90
20370;DHT22;10344;47.592;9.600;2024-02-21T11:21:44;12.50;99.90
20370;DHT22;10344;47.592;9.600;2024-02-21T11:24:13;12.30;99.90
20370;DHT22;10344;47.592;9.600;2024-02-21T11:26:40;12.10;99.90
20370;DHT22;10344;47.592;9.600;2024-02-21T11:29:07;12.20;99.90
20370;DHT22;10344;47.592;9.600;2024-02-21T11:31:43;12.30;99.90
20370;DHT22;10344;47.592;9.600;2024-02-21T11:34:12;12.30;99.90
20370;DHT22;10344;47.592;9.600;2024-02-21T11:36:51;12.30;99.90
20370;DHT22;10344;47.592;9.600;2024-02-21T11:39:25;12.30;99.90
20370;DHT22;10344;47.592;9.600;2024-02-21T11:42:04;12.50;99.90
20370;DHT22;10344;47.592;9.600;2024-02-21T11:44:34;12.70;99.90
20370;DHT22;10344;47.592;9.600;2024-02-21T11:47:00;12.80;99.90
20370;DHT22;10344;47.592;9.600;2024-02-21T11:49:29;13.00;99.90
20370;DHT22;10344;47.592;9.600;2024-02-21T11:52:03;13.10;99.90
20370;DHT22;10344;47.592;9.600;2024-02-21T11:54:33;13.10;99.90
20370;DHT22;10344;47.592;9.600;2024-02-21T11:57:01;13.00;99.90
20370;DHT22;10344;47.592;9.600;2024-02-21T11:59:30;13.00;99.90
20370;DHT22;10344;47.592;9.600;2024-02-21T12:01:58;13.00;99.90
20370;DHT22;10344;47.592;9.600;2024-02-21T12:04:25;12.90;99.90
20370;DHT22;10344;47.592;9.600;2024-02-21T12:06:52;12.70;99.90
20370;DHT22;10344;47.592;9.600;2024-02-21T12:09:18;12.60;99.90
20370;DHT22;10344;47.592;9.600;2024-02-21T12:11:45;12.60;99.90
20370;DHT22;10344;47.592;9.600;2024-02-21T12:14:16;12.50;99.90
20370;DHT22;10344;47.592;9.600;2024-02-21T12:16:42;12.40;99.90
20370;DHT22;10344;47.592;9.600;2024-02-21T12:19:13;12.50;99.90
20370;DHT22;10344;47.592;9.600;2024-02-21T12:21:41;12.70;99.90
20370;DHT22;10344;47.592;9.600;2024-02-21T12:24:23;12.80;99.90
20370;DHT22;10344;47.592;9.600;2024-02-21T12:26:50;12.80;99.90
20370;DHT22;10344;47.592;9.600;2024-02-21T12:29:15;13.10;99.90
20370;DHT22;10344;47.592;9.600;2024-02-21T12:31:41;13.20;99.90
20370;DHT22;10344;47.592;9.600;2024-02-21T12:34:07;13.30;99.90
20370;DHT22;10344;47.592;9.600;2024-02-21T12:36:40;13.50;99.90
20370;DHT22;10344;47.592;9.600;2024-02-21T12:39:07;13.50;99.90
20370;DHT22;10344;47.592;9.600;2024-02-21T12:41:35;13.40;99.90
20370;DHT22;10344;47.592;9.600;2024-02-21T12:44:10;13.20;99.90
20370;DHT22;10344;47.592;9.600;2024-02-21T12:46:37;13.20;99.90
20370;DHT22;10344;47.592;9.600;2024-02-21T12:49:03;13.20;99.90
20370;DHT22;10344;47.592;9.600;2024-02-21T12:51:30;13.20;99.90
20370;DHT22;10344;47.592;9.600;2024-02-21T12:53:56;13.10;99.90
20370;DHT22;10344;47.592;9.600;2024-02-21T12:56:22;13.20;99.90
20370;DHT22;10344;47.592;9.600;2024-02-21T12:58:48;13.00;99.90
20370;DHT22;10344;47.592;9.600;2024-02-21T13:01:13;12.80;99.90
20370;DHT22;10344;47.592;9.600;2024-02-21T13:03:39;12.70;99.90
20370;DHT22;10344;47.592;9.600;2024-02-21T13:06:05;12.70;99.90
20370;DHT22;10344;47.592;9.600;2024-02-21T13:08:36;12.50;99.90
20370;DHT22;10344;47.592;9.600;2024-02-21T13:11:07;12.50;99.90
20370;DHT22;10344;47.592;9.600;2024-02-21T13:13:38;12.30;99.90
20370;DHT22;10344;47.592;9.600;2024-02-21T13:16:04;12.30;99.90
20370;DHT22;10344;47.592;9.600;2024-02-21T13:18:30;12.20;99.90
20370;DHT22;10344;47.592;9.600;2024-02-21T13:20:58;12.00;99.90
20370;DHT22;10344;47.592;9.600;2024-02-21T13:23:23;12.00;99.90
20370;DHT22;10344;47.592;9.600;2024-02-21T13:25:49;11.90;99.90
20370;DHT22;10344;47.592;9.600;2024-02-21T13:28:16;11.70;99.90
20370;DHT22;10344;47.592;9.600;2024-02-21T13:30:42;11.50;99.90
20370;DHT22;10344;47.592;9.600;2024-02-21T13:33:08;11.50;99.90
20370;DHT22;10344;47.592;9.600;2024-02-21T13:35:35;11.50;99.90
20370;DHT22;10344;47.592;9.600;2024-02-21T13:38:02;11.30;99.90
20370;DHT22;10344;47.592;9.600;2024-02-21T13:40:28;11.20;99.90
20370;DHT22;10344;47.592;9.600;2024-02-21T13:42:54;11.10;99.90
20370;DHT22;10344;47.592;9.600;2024-02-21T13:45:20;11.10;99.90
20370;DHT22;10344;47.592;9.600;2024-02-21T13:47:46;11.10;99.90
20370;DHT22;10344;47.592;9.600;2024-02-21T13:50:11;11.00;99.90
20370;DHT22;10344;47.592;9.600;2024-02-21T13:52:42;11.00;99.90
20370;DHT22;10344;47.592;9.600;2024-02-21T13:55:08;11.10;99.90
20370;DHT22;10344;47.592;9.600;2024-02-21T13:57:35;11.10;99.90
20370;DHT22;10344;47.592;9.600;2024-02-21T14:00:02;11.00;99.90
20370;DHT22;10344;47.592;9.600;2024-02-21T14:02:28;11.00;99.90
20370;DHT22;10344;47.592;9.600;2024-02-21T14:04:54;11.00;99.90
20370;DHT22;10344;47.592;9.600;2024-02-21T14:07:24;11.00;99.90
20370;DHT22;10344;47.592;9.600;2024-02-21T14:09:50;11.00;99.90
20370;DHT22;10344;47.592;9.600;2024-02-21T14:12:15;10.90;99.90
20370;DHT22;10344;47.592;9.600;2024-02-21T14:14:43;10.90;99.90
20370;DHT22;10344;47.592;9.600;2024-02-21T14:17:12;10.80;99.90
20370;DHT22;10344;47.592;9.600;2024-02-21T14:19:40;10.80;99.90
20370;DHT22;10344;47.592;9.600;2024-02-21T14:22:07;10.70;99.90
20370;DHT22;10344;47.592;9.600;2024-02-21T14:24:32;10.70;99.90
20370;DHT22;10344;47.592;9.600;2024-02-21T14:26:58;10.70;99.90
20370;DHT22;10344;47.592;9.600;2024-02-21T14:29:27;10.70;99.90
20370;DHT22;10344;47.592;9.600;2024-02-21T14:31:54;10.70;99.90
20370;DHT22;10344;47.592;9.600;2024-02-21T14:34:20;10.60;99.90
20370;DHT22;10344;47.592;9.600;2024-02-21T14:36:45;10.60;99.90
20370;DHT22;10344;47.592;9.600;2024-02-21T14:39:13;10.70;99.90
20370;DHT22;10344;47.592;9.600;2024-02-21T14:41:41;10.80;99.90
20370;DHT22;10344;47.592;9.600;2024-02-21T14:44:07;10.80;99.90
20370;DHT22;10344;47.592;9.600;2024-02-21T14:46:36;10.80;99.90
20370;DHT22;10344;47.592;9.600;2024-02-21T14:49:03;10.80;99.90
20370;DHT22;10344;47.592;9.600;2024-02-21T14:51:29;10.90;99.90
20370;DHT22;10344;47.592;9.600;2024-02-21T14:53:58;11.00;99.90
20370;DHT22;10344;47.592;9.600;2024-02-21T14:56:23;11.20;99.90
20370;DHT22;10344;47.592;9.600;2024-02-21T14:58:49;11.30;99.90
20370;DHT22;10344;47.592;9.600;2024-02-21T15:01:17;11.30;99.90
20370;DHT22;10344;47.592;9.600;2024-02-21T15:03:43;11.30;99.90
20370;DHT22;10344;47.592;9.600;2024-02-21T15:06:09;11.30;99.90
20370;DHT22;10344;47.592;9.600;2024-02-21T15:08:34;11.30;99.90
20370;DHT22;10344;47.592;9.600;2024-02-21T15:11:01;11.40;99.90
20370;DHT22;10344;47.592;9.600;2024-02-21T15:13:28;11.50;99.90
20370;DHT22;10344;47.592;9.600;2024-02-21T15:15:55;11.50;99.90
20370;DHT22;10344;47.592;9.600;2024-02-21T15:18:21;11.40;99.90
20370;DHT22;10344;47.592;9.600;2024-02-21T15:20:46;11.40;99.90
20370;DHT22;10344;47.592;9.600;2024-02-21T15:23:12;11.30;99.90
20370;DHT22;10344;47.592;9.600;2024-02-21T15:25:38;11.40;99.90
20370;DHT22;10344;47.592;9.600;2024-02-21T15:28:03;11.40;99.90
20370;DHT22;10344;47.592;9.600;2024-02-21T15:30:32;11.40;99.90
20370;DHT22;10344;47.592;9.600;2024-02-21T15:33:00;11.30;99.90
20370;DHT22;10344;47.592;9.600;2024-02-21T15:35:30;11.30;99.90
20370;DHT22;10344;47.592;9.600;2024-02-21T15:37:57;11.20;99.90
20370;DHT22;10344;47.592;9.600;2024-02-21T15:40:23;11.20;99.90
20370;DHT22;10344;47.592;9.600;2024-02-21T15:42:49;11.20;99.90
20370;DHT22;10344;47.592;9.600;2024-02-21T15:45:15;11.30;99.90